Time;durP1;ratioP1;P1;durP2;ratioP2;P2;SDS_P1;SDS_P2;PMS_P1;PMS_P2;Temp;Humidity;BMP_temperature;BMP_pressure;BME280_temperature;BME280_humidity;BME280_pressure;Samples;Min_cycle;Max_cycle;Signal;HPM_P1;HPM_P2
2022/10/10 00:01:36;;;;;;;8.27;5.20;;;;;;;;;;5031992;28;20037;-68
2022/10/10 00:04:03;;;;;;;8.50;5.75;;;;;;;;;;5015133;28;20044;-68
2022/10/10 00:06:29;;;;;;;10.18;5.00;;;;;;;;;;5031675;28;20078;-68
2022/10/10 00:08:55;;;;;;;6.95;5.05;;;;;;;;;;5031461;28;20045;-68
2022/10/10 00:11:23;;;;;;;8.82;4.95;;;;;;;;;;5031483;28;20365;-68
2022/10/10 00:13:50;;;;;;;6.40;4.93;;;;;;;;;;5031254;28;20067;-68
2022/10/10 00:16:16;;;;;;;7.40;4.50;;;;;;;;;;5032067;28;20087;-68
2022/10/10 00:18:42;;;;;;;6.75;5.53;;;;;;;;;;5031397;28;20041;-68
2022/10/10 00:21:09;;;;;;;10.43;5.40;;;;;;;;;;5031251;28;20072;-68
2022/10/10 00:23:35;;;;;;;8.85;5.18;;;;;;;;;;5015271;28;20486;-68
2022/10/10 00:26:02;;;;;;;7.10;5.10;;;;;;;;;;5031477;28;20037;-68
2022/10/10 00:28:28;;;;;;;6.25;5.30;;;;;;;;;;5014380;28;20052;-68
2022/10/10 00:30:54;;;;;;;7.22;5.32;;;;;;;;;;5031699;28;20044;-68
2022/10/10 00:33:20;;;;;;;8.35;5.53;;;;;;;;;;5031268;28;20052;-68
2022/10/10 00:35:47;;;;;;;6.00;4.63;;;;;;;;;;5030887;28;20048;-68
2022/10/10 00:38:13;;;;;;;10.35;5.20;;;;;;;;;;5031514;28;20132;-68
2022/10/10 00:40:46;;;;;;;7.63;5.20;;;;;;;;;;5031642;28;20159;-68
2022/10/10 00:43:13;;;;;;;6.65;4.95;;;;;;;;;;5031263;28;20037;-68
2022/10/10 00:45:40;;;;;;;6.43;4.90;;;;;;;;;;5031472;28;20527;-68
2022/10/10 00:48:11;;;;;;;6.85;5.22;;;;;;;;;;5014593;28;20041;-68
2022/10/10 00:50:39;;;;;;;8.35;5.28;;;;;;;;;;5031197;28;20044;-68
2022/10/10 00:53:06;;;;;;;7.95;4.95;;;;;;;;;;5031271;28;20067;-68
2022/10/10 00:55:33;;;;;;;6.10;5.28;;;;;;;;;;5031093;28;20049;-68
2022/10/10 00:57:59;;;;;;;9.30;5.28;;;;;;;;;;5030918;28;20463;-68
2022/10/10 01:00:25;;;;;;;9.38;5.80;;;;;;;;;;5031272;28;20037;-68
2022/10/10 01:02:51;;;;;;;7.25;5.53;;;;;;;;;;5049031;28;20055;-67
2022/10/10 01:05:17;;;;;;;7.65;5.00;;;;;;;;;;5030616;28;20056;-67
2022/10/10 01:07:43;;;;;;;7.10;4.78;;;;;;;;;;5031139;28;20041;-67
2022/10/10 01:10:12;;;;;;;10.20;5.13;;;;;;;;;;5048623;28;20155;-67
2022/10/10 01:12:51;;;;;;;7.97;4.82;;;;;;;;;;5014309;28;20131;-68
2022/10/10 01:15:43;;;;;;;7.78;5.07;;;;;;;;;;5033463;28;20559;-68
2022/10/10 01:18:21;;;;;;;6.10;5.15;;;;;;;;;;5031574;28;20060;-68
2022/10/10 01:20:55;;;;;;;9.90;5.03;;;;;;;;;;5035007;28;20044;-68
2022/10/10 01:23:31;;;;;;;8.98;5.68;;;;;;;;;;5034947;28;20041;-68
2022/10/10 01:26:08;;;;;;;6.68;5.05;;;;;;;;;;5034745;28;20474;-68
2022/10/10 01:28:48;;;;;;;9.60;4.90;;;;;;;;;;5034689;28;20412;-68
2022/10/10 01:31:15;;;;;;;9.80;5.18;;;;;;;;;;5035181;28;20099;-68
2022/10/10 01:33:44;;;;;;;8.50;5.20;;;;;;;;;;5034281;28;20127;-68
2022/10/10 01:36:22;;;;;;;7.05;4.68;;;;;;;;;;5035050;28;20041;-68
2022/10/10 01:39:06;;;;;;;7.53;4.80;;;;;;;;;;5034862;28;20561;-68
2022/10/10 01:41:36;;;;;;;7.53;5.13;;;;;;;;;;5034511;28;20052;-68
2022/10/10 01:44:02;;;;;;;7.25;5.22;;;;;;;;;;5034534;28;20049;-68
2022/10/10 01:46:28;;;;;;;7.25;4.68;;;;;;;;;;5034964;28;20103;-68
2022/10/10 01:48:56;;;;;;;7.07;5.28;;;;;;;;;;5034121;28;20037;-68
2022/10/10 01:51:31;;;;;;;6.65;4.90;;;;;;;;;;5034372;28;20041;-68
2022/10/10 01:54:12;;;;;;;7.50;5.30;;;;;;;;;;5017860;28;20044;-68
2022/10/10 01:56:38;;;;;;;8.80;5.57;;;;;;;;;;5034148;28;20036;-68
2022/10/10 01:59:17;;;;;;;6.07;4.80;;;;;;;;;;5034520;28;20041;-68
2022/10/10 02:01:52;;;;;;;7.15;5.18;;;;;;;;;;5034346;28;20419;-68
2022/10/10 02:04:21;;;;;;;8.25;5.40;;;;;;;;;;5033733;28;20055;-67
2022/10/10 02:07:01;;;;;;;8.38;5.40;;;;;;;;;;5031013;28;20044;-67
2022/10/10 02:09:41;;;;;;;9.10;5.20;;;;;;;;;;5030484;28;20050;-67
2022/10/10 02:12:09;;;;;;;8.50;4.97;;;;;;;;;;5013758;28;20049;-67
2022/10/10 02:14:39;;;;;;;8.85;5.35;;;;;;;;;;5030475;28;20041;-67
2022/10/10 02:17:08;;;;;;;10.85;5.45;;;;;;;;;;5030851;28;20033;-67
2022/10/10 02:19:34;;;;;;;8.85;5.05;;;;;;;;;;5030307;28;20037;-67
2022/10/10 02:22:01;;;;;;;5.78;5.15;;;;;;;;;;5014267;28;20033;-67
2022/10/10 02:24:27;;;;;;;7.10;5.15;;;;;;;;;;5030762;28;20531;-67
2022/10/10 02:26:55;;;;;;;7.72;5.18;;;;;;;;;;5046095;28;20053;-67
2022/10/10 02:29:26;;;;;;;10.40;5.63;;;;;;;;;;5033415;28;20037;-67
2022/10/10 02:32:01;;;;;;;9.65;5.45;;;;;;;;;;5033801;28;20051;-67
2022/10/10 02:34:30;;;;;;;7.32;5.50;;;;;;;;;;5033009;28;20041;-67
2022/10/10 02:36:58;;;;;;;9.50;5.50;;;;;;;;;;5051629;28;20036;-67
2022/10/10 02:39:26;;;;;;;8.60;5.30;;;;;;;;;;5033325;28;20456;-67
2022/10/10 02:41:52;;;;;;;10.43;5.65;;;;;;;;;;5033188;28;20462;-67
2022/10/10 02:44:18;;;;;;;8.13;5.55;;;;;;;;;;5033629;28;20040;-67
2022/10/10 02:46:44;;;;;;;8.20;5.57;;;;;;;;;;5033559;28;20460;-67
2022/10/10 02:49:11;;;;;;;9.40;5.50;;;;;;;;;;5032855;28;20045;-67
2022/10/10 02:51:38;;;;;;;9.98;5.68;;;;;;;;;;5033285;28;20123;-68
2022/10/10 02:54:04;;;;;;;7.35;5.50;;;;;;;;;;5051037;28;20512;-68
2022/10/10 02:56:30;;;;;;;8.20;5.53;;;;;;;;;;5032681;28;20033;-67
2022/10/10 02:58:56;;;;;;;7.13;5.60;;;;;;;;;;5051199;28;20142;-68
2022/10/10 03:01:22;;;;;;;9.98;5.88;;;;;;;;;;5033360;28;20562;-68
2022/10/10 03:03:48;;;;;;;7.40;6.15;;;;;;;;;;5032634;28;20156;-68
2022/10/10 03:06:14;;;;;;;9.75;6.35;;;;;;;;;;5033479;28;20084;-68
2022/10/10 03:08:40;;;;;;;9.88;6.32;;;;;;;;;;5033160;28;20083;-68
2022/10/10 03:11:06;;;;;;;8.98;6.50;;;;;;;;;;5032468;28;20049;-68
2022/10/10 03:13:32;;;;;;;8.45;5.82;;;;;;;;;;5033060;28;20517;-68
2022/10/10 03:15:58;;;;;;;7.82;5.72;;;;;;;;;;5050794;28;20041;-68
2022/10/10 03:18:24;;;;;;;12.02;5.97;;;;;;;;;;5032284;28;20542;-68
2022/10/10 03:20:51;;;;;;;7.88;6.20;;;;;;;;;;5032810;28;20047;-68
2022/10/10 03:23:18;;;;;;;12.52;6.18;;;;;;;;;;5032865;28;20044;-68
2022/10/10 03:25:44;;;;;;;7.45;6.13;;;;;;;;;;5032574;28;20522;-68
2022/10/10 03:28:10;;;;;;;10.20;6.75;;;;;;;;;;5032857;28;20203;-68
2022/10/10 03:30:37;;;;;;;8.18;5.95;;;;;;;;;;5032705;28;20045;-68
2022/10/10 03:33:03;;;;;;;9.02;6.85;;;;;;;;;;5032390;28;20069;-68
2022/10/10 03:35:29;;;;;;;10.88;6.20;;;;;;;;;;5032294;28;20096;-68
2022/10/10 03:37:56;;;;;;;11.38;7.00;;;;;;;;;;5031665;28;20045;-68
2022/10/10 03:40:22;;;;;;;12.82;6.18;;;;;;;;;;5032193;28;20037;-68
2022/10/10 03:42:47;;;;;;;10.25;6.22;;;;;;;;;;5032486;28;20037;-68
2022/10/10 03:45:13;;;;;;;10.18;6.70;;;;;;;;;;5032365;28;20052;-68
2022/10/10 03:47:39;;;;;;;12.13;6.68;;;;;;;;;;5031695;28;20136;-68
2022/10/10 03:50:06;;;;;;;11.15;6.43;;;;;;;;;;5032250;28;20048;-68
2022/10/10 03:52:32;;;;;;;9.68;6.13;;;;;;;;;;5032079;28;20044;-68
2022/10/10 03:54:58;;;;;;;8.65;6.50;;;;;;;;;;5031660;28;20508;-68
2022/10/10 03:57:23;;;;;;;10.93;6.38;;;;;;;;;;5032522;28;20069;-68
2022/10/10 03:59:49;;;;;;;9.38;7.22;;;;;;;;;;5031987;28;20047;-68
2022/10/10 04:02:15;;;;;;;9.35;6.40;;;;;;;;;;5031590;28;20091;-68
2022/10/10 04:04:41;;;;;;;16.10;7.32;;;;;;;;;;5031875;28;20120;-68
2022/10/10 04:07:07;;;;;;;10.95;6.93;;;;;;;;;;5031914;28;20045;-68
2022/10/10 04:09:33;;;;;;;10.60;6.75;;;;;;;;;;5030996;28;20083;-68
2022/10/10 04:12:00;;;;;;;9.65;6.60;;;;;;;;;;5031724;28;20084;-67
2022/10/10 04:14:26;;;;;;;12.25;6.88;;;;;;;;;;5031720;28;20099;-67
2022/10/10 04:16:52;;;;;;;10.45;6.78;;;;;;;;;;5031605;28;20118;-67
2022/10/10 04:19:18;;;;;;;13.25;7.32;;;;;;;;;;5031761;28;20044;-67
2022/10/10 04:21:44;;;;;;;13.43;6.93;;;;;;;;;;5031503;28;20083;-67
2022/10/10 04:24:10;;;;;;;11.98;6.63;;;;;;;;;;5031528;28;20047;-67
2022/10/10 04:26:36;;;;;;;9.15;6.80;;;;;;;;;;5031562;28;20049;-67
2022/10/10 04:29:02;;;;;;;9.52;6.60;;;;;;;;;;5031108;28;20052;-67
2022/10/10 04:31:28;;;;;;;11.32;6.80;;;;;;;;;;5031101;28;20517;-67
2022/10/10 04:33:54;;;;;;;12.57;7.90;;;;;;;;;;5031550;28;20534;-67
2022/10/10 04:36:20;;;;;;;11.10;7.78;;;;;;;;;;5031631;28;20044;-67
2022/10/10 04:38:47;;;;;;;13.75;7.38;;;;;;;;;;5030685;28;20044;-67
2022/10/10 04:41:13;;;;;;;11.98;7.25;;;;;;;;;;5032481;28;20466;-67
2022/10/10 04:43:39;;;;;;;12.02;6.72;;;;;;;;;;5050384;28;20049;-67
2022/10/10 04:46:05;;;;;;;11.48;6.78;;;;;;;;;;5015712;28;20162;-67
2022/10/10 04:48:31;;;;;;;9.10;6.93;;;;;;;;;;5050609;28;20460;-67
2022/10/10 04:50:58;;;;;;;9.52;7.53;;;;;;;;;;5015894;28;20037;-67
2022/10/10 04:53:24;;;;;;;9.73;6.65;;;;;;;;;;5031869;28;20119;-67
2022/10/10 04:55:50;;;;;;;13.52;6.85;;;;;;;;;;5032064;28;20055;-67
2022/10/10 04:58:17;;;;;;;11.68;7.40;;;;;;;;;;5032459;28;20223;-67
2022/10/10 05:00:43;;;;;;;12.75;7.93;;;;;;;;;;5050044;28;20463;-67
2022/10/10 05:03:12;;;;;;;12.52;7.00;;;;;;;;;;5032393;28;20047;-67
2022/10/10 05:05:39;;;;;;;9.73;6.55;;;;;;;;;;5031351;28;20438;-67
2022/10/10 05:08:06;;;;;;;12.07;7.20;;;;;;;;;;5031143;28;20045;-68
2022/10/10 05:10:37;;;;;;;11.15;7.50;;;;;;;;;;5049597;28;20144;-68
2022/10/10 05:13:04;;;;;;;11.57;7.60;;;;;;;;;;5046051;28;20053;-68
2022/10/10 05:15:30;;;;;;;11.07;7.30;;;;;;;;;;5031506;28;20134;-68
2022/10/10 05:17:56;;;;;;;15.38;7.57;;;;;;;;;;5031870;28;20502;-68
2022/10/10 05:20:22;;;;;;;11.52;7.28;;;;;;;;;;5049665;28;20036;-68
2022/10/10 05:22:48;;;;;;;9.60;7.13;;;;;;;;;;5031937;28;20041;-68
2022/10/10 05:25:14;;;;;;;9.95;7.20;;;;;;;;;;5032258;28;20047;-68
2022/10/10 05:27:40;;;;;;;10.45;7.28;;;;;;;;;;5032070;28;20120;-68
2022/10/10 05:30:06;;;;;;;12.15;7.32;;;;;;;;;;5031570;28;20136;-68
2022/10/10 05:32:32;;;;;;;14.80;7.68;;;;;;;;;;5032045;28;20525;-69
2022/10/10 05:34:58;;;;;;;14.80;7.82;;;;;;;;;;5032055;28;20041;-69
2022/10/10 05:37:24;;;;;;;11.10;7.35;;;;;;;;;;5031303;28;20037;-69
2022/10/10 05:39:50;;;;;;;13.02;8.38;;;;;;;;;;5031674;28;20037;-69
2022/10/10 05:42:16;;;;;;;10.95;7.85;;;;;;;;;;5014941;28;20045;-69
2022/10/10 05:44:42;;;;;;;10.55;7.28;;;;;;;;;;5031376;28;20052;-70
2022/10/10 05:47:08;;;;;;;13.20;7.53;;;;;;;;;;5031650;28;20047;-69
2022/10/10 05:49:34;;;;;;;12.68;8.00;;;;;;;;;;5031638;28;20068;-69
2022/10/10 05:52:01;;;;;;;15.90;8.13;;;;;;;;;;5031851;28;20055;-67
2022/10/10 05:54:27;;;;;;;15.18;8.20;;;;;;;;;;5030880;28;20434;-68
2022/10/10 05:56:53;;;;;;;13.00;8.05;;;;;;;;;;5043240;28;20048;-68
2022/10/10 05:59:19;;;;;;;15.35;8.13;;;;;;;;;;5031117;28;20037;-68
2022/10/10 06:01:45;;;;;;;15.20;8.65;;;;;;;;;;5033950;28;20479;-68
2022/10/10 06:04:11;;;;;;;11.98;8.52;;;;;;;;;;5052181;28;20052;-68
2022/10/10 06:06:37;;;;;;;12.93;7.95;;;;;;;;;;5052827;28;20154;-68
2022/10/10 06:09:03;;;;;;;12.88;8.18;;;;;;;;;;5034531;28;20159;-68
2022/10/10 06:11:29;;;;;;;14.43;8.93;;;;;;;;;;5034087;28;20057;-68
2022/10/10 06:13:56;;;;;;;13.10;8.10;;;;;;;;;;5040288;28;20124;-65
2022/10/10 06:16:26;;;;;;;13.38;7.75;;;;;;;;;;5057144;28;20073;-65
2022/10/10 06:18:52;;;;;;;13.63;7.85;;;;;;;;;;5052371;28;20120;-66
2022/10/10 06:21:18;;;;;;;14.68;8.23;;;;;;;;;;5052886;28;20088;-66
2022/10/10 06:23:44;;;;;;;12.77;8.23;;;;;;;;;;5060494;28;20076;-64
2022/10/10 06:26:11;;;;;;;10.45;7.82;;;;;;;;;;5059543;28;20124;-64
2022/10/10 06:28:37;;;;;;;12.73;7.30;;;;;;;;;;5052237;28;20037;-65
2022/10/10 06:31:05;;;;;;;9.32;7.88;;;;;;;;;;5051845;28;20037;-65
2022/10/10 06:33:31;;;;;;;13.02;8.55;;;;;;;;;;5051719;28;20202;-64
2022/10/10 06:35:57;;;;;;;17.90;8.90;;;;;;;;;;5028813;28;20048;-64
2022/10/10 06:38:23;;;;;;;17.90;9.75;;;;;;;;;;5056937;28;20044;-64
2022/10/10 06:40:50;;;;;;;12.45;7.55;;;;;;;;;;5051532;28;20542;-64
2022/10/10 06:43:16;;;;;;;13.32;8.00;;;;;;;;;;5051997;28;20504;-64
2022/10/10 06:45:43;;;;;;;13.30;8.05;;;;;;;;;;5050138;28;20033;-64
2022/10/10 06:48:10;;;;;;;12.20;8.35;;;;;;;;;;5051285;28;20041;-64
2022/10/10 06:50:36;;;;;;;11.90;7.70;;;;;;;;;;5052853;28;20041;-64
2022/10/10 06:53:02;;;;;;;10.05;7.85;;;;;;;;;;5046214;28;20127;-67
2022/10/10 06:55:28;;;;;;;14.82;8.30;;;;;;;;;;5061978;28;20045;-67
2022/10/10 06:57:54;;;;;;;13.18;8.40;;;;;;;;;;5043042;28;20044;-64
2022/10/10 07:00:20;;;;;;;12.63;8.30;;;;;;;;;;5051377;28;20262;-68
2022/10/10 07:02:47;;;;;;;16.17;8.10;;;;;;;;;;5060908;28;20048;-65
2022/10/10 07:05:15;;;;;;;12.55;7.63;;;;;;;;;;5064006;28;20037;-65
2022/10/10 07:07:41;;;;;;;14.85;8.10;;;;;;;;;;5060549;28;20483;-65
2022/10/10 07:10:09;;;;;;;11.80;7.28;;;;;;;;;;5038948;28;20489;-66
2022/10/10 07:12:37;;;;;;;15.68;7.60;;;;;;;;;;5053574;28;20041;-65
2022/10/10 07:15:03;;;;;;;15.40;9.05;;;;;;;;;;5032496;28;20498;-66
2022/10/10 07:17:30;;;;;;;10.18;7.57;;;;;;;;;;5051525;28;20037;-66
2022/10/10 07:19:56;;;;;;;13.05;8.07;;;;;;;;;;5069392;28;20051;-65
2022/10/10 07:22:22;;;;;;;13.23;8.48;;;;;;;;;;5058465;28;20072;-65
2022/10/10 07:24:48;;;;;;;11.80;8.60;;;;;;;;;;5033298;28;20498;-66
2022/10/10 07:27:14;;;;;;;14.75;8.00;;;;;;;;;;5032865;28;20041;-67
2022/10/10 07:29:40;;;;;;;14.80;8.25;;;;;;;;;;5050684;28;20048;-65
2022/10/10 07:32:06;;;;;;;14.57;8.60;;;;;;;;;;5043942;28;20048;-65
2022/10/10 07:34:35;;;;;;;14.50;8.38;;;;;;;;;;5056954;28;20049;-65
2022/10/10 07:37:01;;;;;;;13.98;7.88;;;;;;;;;;5030360;28;20077;-65
2022/10/10 07:39:27;;;;;;;12.10;7.90;;;;;;;;;;5056216;28;20066;-65
2022/10/10 07:41:53;;;;;;;14.30;8.38;;;;;;;;;;5044345;28;20109;-67
2022/10/10 07:44:19;;;;;;;13.93;7.93;;;;;;;;;;5043458;28;20048;-67
2022/10/10 07:46:45;;;;;;;15.10;8.35;;;;;;;;;;5036874;28;20048;-67
2022/10/10 07:49:12;;;;;;;12.60;8.77;;;;;;;;;;5067107;28;20041;-66
2022/10/10 07:51:38;;;;;;;13.43;8.15;;;;;;;;;;5050179;28;20045;-66
2022/10/10 07:54:05;;;;;;;14.60;8.20;;;;;;;;;;5036627;28;20047;-65
2022/10/10 07:56:31;;;;;;;14.90;8.10;;;;;;;;;;5050255;28;20040;-66
2022/10/10 07:58:57;;;;;;;12.30;8.05;;;;;;;;;;5062514;28;20444;-64
2022/10/10 08:01:23;;;;;;;13.13;8.98;;;;;;;;;;5066997;28;20451;-66
2022/10/10 08:03:49;;;;;;;13.68;8.07;;;;;;;;;;5059972;28;20063;-66
2022/10/10 08:06:16;;;;;;;15.02;8.80;;;;;;;;;;5054747;28;20495;-64
2022/10/10 08:08:43;;;;;;;12.95;8.23;;;;;;;;;;5067812;28;20124;-65
2022/10/10 08:11:10;;;;;;;11.82;8.23;;;;;;;;;;5030640;28;20066;-66
2022/10/10 08:13:38;;;;;;;14.93;8.77;;;;;;;;;;5026940;28;20408;-66
2022/10/10 08:16:05;;;;;;;12.00;8.07;;;;;;;;;;5002201;28;20048;-66
2022/10/10 08:18:31;;;;;;;14.20;8.57;;;;;;;;;;5036759;28;20045;-66
2022/10/10 08:21:04;;;;;;;13.93;8.10;;;;;;;;;;5016221;28;20047;-65
2022/10/10 08:23:30;;;;;;;14.98;8.63;;;;;;;;;;5034696;28;20098;-64
2022/10/10 08:26:00;;;;;;;11.57;8.02;;;;;;;;;;5035612;28;20432;-67
2022/10/10 08:28:26;;;;;;;12.80;8.60;;;;;;;;;;5005257;28;20051;-66
2022/10/10 08:30:52;;;;;;;10.35;7.70;;;;;;;;;;5025981;28;20088;-66
2022/10/10 08:33:18;;;;;;;13.68;8.50;;;;;;;;;;5031175;28;20155;-66
2022/10/10 08:35:44;;;;;;;15.35;8.50;;;;;;;;;;5039357;28;20049;-67
2022/10/10 08:38:11;;;;;;;13.82;8.10;;;;;;;;;;5028338;28;20524;-68
2022/10/10 08:40:47;;;;;;;15.48;9.20;;;;;;;;;;5013409;28;20038;-65
2022/10/10 08:43:26;;;;;;;13.55;8.30;;;;;;;;;;5033970;28;20049;-65
2022/10/10 08:45:53;;;;;;;14.27;7.80;;;;;;;;;;5012453;28;20052;-65
2022/10/10 08:48:22;;;;;;;12.00;8.30;;;;;;;;;;5037571;28;20053;-65
2022/10/10 08:50:51;;;;;;;12.48;8.15;;;;;;;;;;5037358;28;20543;-64
2022/10/10 08:53:24;;;;;;;11.63;8.00;;;;;;;;;;5046025;28;20037;-65
2022/10/10 08:55:52;;;;;;;13.95;8.25;;;;;;;;;;5029126;28;20044;-65
2022/10/10 08:58:18;;;;;;;12.25;8.07;;;;;;;;;;5034010;28;20379;-65
2022/10/10 09:00:48;;;;;;;14.27;7.68;;;;;;;;;;5028448;28;20095;-65
2022/10/10 09:03:34;;;;;;;11.27;7.57;;;;;;;;;;5038660;28;20174;-65
2022/10/10 09:06:16;;;;;;;14.20;8.23;;;;;;;;;;5034084;28;20051;-64
2022/10/10 09:08:53;;;;;;;11.10;8.10;;;;;;;;;;5045929;28;20045;-64
2022/10/10 09:11:27;;;;;;;13.50;7.97;;;;;;;;;;5056090;28;20063;-65
2022/10/10 09:14:13;;;;;;;11.95;7.90;;;;;;;;;;5062442;28;20095;-64
2022/10/10 09:16:53;;;;;;;13.23;7.50;;;;;;;;;;5066001;28;20109;-66
2022/10/10 09:19:37;;;;;;;14.35;8.38;;;;;;;;;;5042545;28;20055;-64
2022/10/10 09:22:06;;;;;;;14.52;7.82;;;;;;;;;;5028927;28;20044;-65
2022/10/10 09:24:35;;;;;;;11.30;7.88;;;;;;;;;;5066742;28;20047;-65
2022/10/10 09:27:03;;;;;;;13.48;8.45;;;;;;;;;;5055458;28;20047;-66
2022/10/10 09:29:29;;;;;;;16.08;8.57;;;;;;;;;;5052385;28;20503;-65
2022/10/10 09:32:13;;;;;;;11.68;7.72;;;;;;;;;;5053605;28;20514;-65
2022/10/10 09:34:45;;;;;;;13.10;7.88;;;;;;;;;;5035466;28;20045;-64
2022/10/10 09:37:15;;;;;;;13.03;8.50;;;;;;;;;;5036160;28;20048;-65
2022/10/10 09:39:56;;;;;;;17.10;8.45;;;;;;;;;;5059410;28;20135;-65
2022/10/10 09:42:30;;;;;;;12.88;8.10;;;;;;;;;;5058179;28;20130;-64
2022/10/10 09:44:57;;;;;;;14.20;7.85;;;;;;;;;;5054695;28;20923;-66
2022/10/10 09:47:23;;;;;;;13.88;7.88;;;;;;;;;;5057383;28;20044;-66
2022/10/10 09:49:49;;;;;;;15.70;7.68;;;;;;;;;;5034364;28;20074;-65
2022/10/10 09:52:33;;;;;;;13.50;7.10;;;;;;;;;;5061380;28;20562;-65
2022/10/10 09:55:05;;;;;;;13.13;7.70;;;;;;;;;;5067673;28;20386;-66
2022/10/10 09:57:35;;;;;;;10.55;7.00;;;;;;;;;;5052514;28;20106;-66
2022/10/10 10:00:10;;;;;;;10.25;7.40;;;;;;;;;;5044142;28;20048;-65
2022/10/10 10:02:36;;;;;;;10.88;7.45;;;;;;;;;;5054668;28;20036;-65
2022/10/10 10:05:17;;;;;;;11.75;7.78;;;;;;;;;;5052003;28;20044;-64
2022/10/10 10:07:47;;;;;;;15.70;7.47;;;;;;;;;;5056386;28;20033;-64
2022/10/10 10:10:18;;;;;;;12.90;7.40;;;;;;;;;;5055584;28;20060;-63
2022/10/10 10:12:45;;;;;;;11.05;7.00;;;;;;;;;;5051805;28;20525;-63
2022/10/10 10:15:22;;;;;;;11.98;7.60;;;;;;;;;;5052336;28;20088;-62
2022/10/10 10:18:11;;;;;;;12.27;7.68;;;;;;;;;;5051698;28;20081;-64
2022/10/10 10:20:38;;;;;;;13.82;8.13;;;;;;;;;;5024036;28;20450;-65
2022/10/10 10:23:05;;;;;;;16.58;7.80;;;;;;;;;;5051743;28;20718;-64
2022/10/10 10:25:37;;;;;;;15.30;7.72;;;;;;;;;;5064647;28;20052;-68
2022/10/10 10:28:22;;;;;;;13.68;7.85;;;;;;;;;;5062339;28;20048;-66
2022/10/10 10:30:48;;;;;;;13.88;7.63;;;;;;;;;;5056962;28;20091;-63
2022/10/10 10:33:26;;;;;;;9.63;6.75;;;;;;;;;;5052072;28;20065;-64
2022/10/10 10:35:52;;;;;;;11.45;7.05;;;;;;;;;;5056818;28;20048;-64
2022/10/10 10:38:30;;;;;;;9.50;6.25;;;;;;;;;;5056823;28;20438;-63
2022/10/10 10:41:06;;;;;;;17.00;7.90;;;;;;;;;;5051812;28;20060;-64
2022/10/10 10:43:38;;;;;;;13.13;6.97;;;;;;;;;;5056937;28;20041;-64
2022/10/10 10:46:17;;;;;;;15.23;7.30;;;;;;;;;;5040149;28;20044;-63
2022/10/10 10:48:46;;;;;;;11.73;7.55;;;;;;;;;;5050105;28;20070;-63
2022/10/10 10:51:27;;;;;;;11.18;6.63;;;;;;;;;;5066691;28;20036;-63
2022/10/10 10:54:13;;;;;;;10.88;7.18;;;;;;;;;;5069226;28;20140;-63
2022/10/10 10:56:42;;;;;;;11.82;6.78;;;;;;;;;;5051128;28;20076;-63
2022/10/10 10:59:34;;;;;;;12.40;6.22;;;;;;;;;;5059464;28;20106;-63
2022/10/10 11:02:06;;;;;;;11.98;6.25;;;;;;;;;;5051856;28;20037;-64
2022/10/10 11:04:52;;;;;;;13.00;7.10;;;;;;;;;;5068869;28;20094;-63
2022/10/10 11:07:21;;;;;;;11.30;6.25;;;;;;;;;;5051694;28;20049;-63
2022/10/10 11:10:08;;;;;;;12.93;6.45;;;;;;;;;;5051452;28;20071;-63
2022/10/10 11:12:43;;;;;;;10.80;6.18;;;;;;;;;;5037149;28;20073;-64
2022/10/10 11:15:15;;;;;;;12.30;6.90;;;;;;;;;;5063691;28;20051;-64
2022/10/10 11:17:44;;;;;;;10.82;6.50;;;;;;;;;;5071482;28;20040;-63
2022/10/10 11:20:29;;;;;;;11.85;6.50;;;;;;;;;;5055688;28;20082;-63
2022/10/10 11:23:03;;;;;;;13.23;6.63;;;;;;;;;;5056628;28;20052;-63
2022/10/10 11:25:32;;;;;;;11.23;6.72;;;;;;;;;;5066071;28;20094;-63
2022/10/10 11:28:05;;;;;;;13.10;7.30;;;;;;;;;;5064169;28;20040;-65
2022/10/10 11:30:34;;;;;;;12.75;7.43;;;;;;;;;;5069814;28;20041;-64
2022/10/10 11:33:23;;;;;;;19.30;7.72;;;;;;;;;;5050773;28;20049;-65
2022/10/10 11:36:00;;;;;;;11.68;7.30;;;;;;;;;;5033771;28;20105;-65
2022/10/10 11:38:26;;;;;;;11.02;7.03;;;;;;;;;;5050800;28;20372;-65
2022/10/10 11:41:22;;;;;;;10.40;7.50;;;;;;;;;;5050389;28;20369;-65
2022/10/10 11:43:51;;;;;;;11.63;7.15;;;;;;;;;;5045438;28;20132;-65
2022/10/10 11:46:32;;;;;;;21.98;7.95;;;;;;;;;;5066577;28;20040;-66
2022/10/10 11:49:18;;;;;;;11.70;7.43;;;;;;;;;;5032203;28;20526;-65
2022/10/10 11:51:44;;;;;;;13.65;8.15;;;;;;;;;;5061546;28;20086;-66
2022/10/10 11:54:15;;;;;;;11.38;7.28;;;;;;;;;;5051579;28;20041;-66
2022/10/10 11:56:43;;;;;;;16.65;7.65;;;;;;;;;;5050861;28;20565;-66
2022/10/10 11:59:15;;;;;;;14.80;8.30;;;;;;;;;;5037982;28;20387;-66
2022/10/10 12:01:44;;;;;;;13.65;7.90;;;;;;;;;;5052564;28;20364;-66
2022/10/10 12:04:10;;;;;;;12.27;7.97;;;;;;;;;;5055720;28;20037;-66
2022/10/10 12:06:43;;;;;;;13.57;7.55;;;;;;;;;;5050293;28;20361;-66
2022/10/10 12:09:13;;;;;;;10.80;7.80;;;;;;;;;;5050348;28;20048;-66
2022/10/10 12:11:42;;;;;;;17.10;8.45;;;;;;;;;;5059609;28;20844;-64
2022/10/10 12:14:13;;;;;;;11.80;7.05;;;;;;;;;;5070250;28;20052;-67
2022/10/10 12:16:39;;;;;;;14.65;8.00;;;;;;;;;;5052345;28;20479;-65
2022/10/10 12:19:06;;;;;;;13.52;8.23;;;;;;;;;;5054519;28;20036;-64
2022/10/10 12:21:50;;;;;;;13.75;7.65;;;;;;;;;;5052639;28;20055;-65
2022/10/10 12:24:16;;;;;;;16.95;8.25;;;;;;;;;;5055414;28;20388;-68
2022/10/10 12:26:51;;;;;;;12.75;7.50;;;;;;;;;;5033134;28;20092;-67
2022/10/10 12:29:36;;;;;;;13.50;7.70;;;;;;;;;;5024366;28;20047;-64
2022/10/10 12:32:16;;;;;;;14.27;7.85;;;;;;;;;;5062038;28;20045;-66
2022/10/10 12:34:48;;;;;;;15.75;7.95;;;;;;;;;;5068581;28;20143;-64
2022/10/10 12:37:25;;;;;;;17.33;9.20;;;;;;;;;;5060244;28;20028;-65
2022/10/10 12:40:06;;;;;;;14.13;8.60;;;;;;;;;;5064437;28;20501;-65
2022/10/10 12:42:33;;;;;;;17.48;9.45;;;;;;;;;;5065652;28;20083;-66
2022/10/10 12:44:59;;;;;;;19.00;9.35;;;;;;;;;;5056971;28;20152;-67
2022/10/10 12:47:35;;;;;;;25.15;10.30;;;;;;;;;;5056718;28;20040;-65
2022/10/10 12:50:02;;;;;;;21.85;9.35;;;;;;;;;;5052910;28;20115;-64
2022/10/10 12:52:36;;;;;;;20.25;9.52;;;;;;;;;;5065087;28;20051;-64
2022/10/10 12:55:04;;;;;;;17.27;10.00;;;;;;;;;;5065852;28;20067;-66
2022/10/10 12:57:32;;;;;;;20.23;10.23;;;;;;;;;;5049957;28;20036;-65
2022/10/10 13:00:05;;;;;;;15.55;9.60;;;;;;;;;;5066013;28;20040;-65
2022/10/10 13:02:31;;;;;;;16.00;8.88;;;;;;;;;;5068347;28;20045;-66
2022/10/10 13:04:58;;;;;;;21.13;10.43;;;;;;;;;;5041733;28;20032;-65
2022/10/10 13:07:25;;;;;;;17.13;10.25;;;;;;;;;;5058295;28;20625;-66
2022/10/10 13:09:53;;;;;;;15.30;10.48;;;;;;;;;;5031293;28;20132;-65
2022/10/10 13:12:30;;;;;;;22.05;11.23;;;;;;;;;;5036163;28;20053;-65
2022/10/10 13:14:56;;;;;;;18.60;10.90;;;;;;;;;;5060502;28;20048;-65
2022/10/10 13:17:25;;;;;;;22.15;11.35;;;;;;;;;;5073320;28;20036;-64
2022/10/10 13:19:52;;;;;;;21.25;11.73;;;;;;;;;;5064177;28;20072;-65
2022/10/10 13:22:18;;;;;;;22.90;11.50;;;;;;;;;;5053649;28;20037;-65
2022/10/10 13:24:45;;;;;;;28.70;12.10;;;;;;;;;;5069515;28;20041;-66
2022/10/10 13:27:20;;;;;;;24.13;11.73;;;;;;;;;;5055104;28;20040;-66
2022/10/10 13:29:46;;;;;;;26.88;11.52;;;;;;;;;;5053612;28;20044;-66
2022/10/10 13:32:24;;;;;;;22.23;12.15;;;;;;;;;;5053217;28;20436;-66
2022/10/10 13:34:52;;;;;;;21.42;11.98;;;;;;;;;;5053556;28;20095;-64
2022/10/10 13:37:19;;;;;;;21.70;12.13;;;;;;;;;;5053912;28;20037;-64
2022/10/10 13:39:47;;;;;;;18.70;11.70;;;;;;;;;;5053358;28;20490;-64
2022/10/10 13:42:33;;;;;;;20.38;12.30;;;;;;;;;;5053267;28;20064;-64
2022/10/10 13:44:59;;;;;;;20.73;11.80;;;;;;;;;;5052952;28;20098;-64
2022/10/10 13:47:44;;;;;;;22.73;11.55;;;;;;;;;;5055516;28;20095;-66
2022/10/10 13:50:21;;;;;;;24.58;13.43;;;;;;;;;;5051357;28;20048;-65
2022/10/10 13:52:47;;;;;;;24.08;13.30;;;;;;;;;;5073316;28;20079;-65
2022/10/10 13:55:15;;;;;;;22.15;12.77;;;;;;;;;;5073039;28;20083;-64
2022/10/10 13:57:41;;;;;;;24.77;13.25;;;;;;;;;;5073335;28;20047;-64
2022/10/10 14:00:14;;;;;;;19.42;12.82;;;;;;;;;;5062944;28;20047;-64
2022/10/10 14:02:41;;;;;;;22.80;13.43;;;;;;;;;;5052880;28;20436;-65
2022/10/10 14:05:08;;;;;;;24.20;13.13;;;;;;;;;;5053063;28;20341;-65
2022/10/10 14:07:35;;;;;;;14.10;6.32;;;;;;;;;;5035284;28;20041;-66
2022/10/10 14:10:04;;;;;;;6.38;3.95;;;;;;;;;;5034573;28;20061;-64
2022/10/10 14:12:32;;;;;;;5.47;2.22;;;;;;;;;;5052904;28;20095;-65
2022/10/10 14:14:59;;;;;;;9.20;1.85;;;;;;;;;;5053179;28;20055;-65
2022/10/10 14:17:26;;;;;;;8.80;1.80;;;;;;;;;;5034791;28;20100;-66
2022/10/10 14:19:52;;;;;;;4.53;1.30;;;;;;;;;;5052945;28;20036;-65
2022/10/10 14:22:18;;;;;;;5.28;1.13;;;;;;;;;;5052579;28;20057;-65
2022/10/10 14:24:45;;;;;;;4.65;1.08;;;;;;;;;;5052284;28;20040;-65
2022/10/10 14:27:16;;;;;;;2.15;1.10;;;;;;;;;;5034674;28;20049;-65
2022/10/10 14:29:42;;;;;;;4.25;1.20;;;;;;;;;;5059551;28;20041;-66
2022/10/10 14:32:09;;;;;;;4.38;0.90;;;;;;;;;;5034238;28;20048;-66
2022/10/10 14:34:35;;;;;;;4.15;1.10;;;;;;;;;;5052545;28;20476;-67
2022/10/10 14:37:01;;;;;;;6.25;1.00;;;;;;;;;;5052702;28;20080;-66
2022/10/10 14:39:27;;;;;;;5.25;1.00;;;;;;;;;;5034060;28;20124;-64
2022/10/10 14:41:54;;;;;;;7.72;1.10;;;;;;;;;;5052739;28;20044;-64
2022/10/10 14:44:20;;;;;;;7.97;1.23;;;;;;;;;;5063429;28;20048;-64
2022/10/10 14:46:46;;;;;;;3.17;1.05;;;;;;;;;;5072313;28;20040;-64